KSEM/SEM METAR and TAF weather

Enter ICAO airport designator
Station Type Date Time Source
KSEM METAR 2022/09/26 08:35 UTC NOAA

KSEM 260835Z AUTO 00000KT 10SM BKN040 OVC045 19/19 A2992 RMK AO2


Station Type Date Time Source
KSEM Decoded METAR 2022/09/26 08:35 UTC NOAA

Craig Field / Selma, AL, United States (KSEM) 32-21N 086-59W
Sep 26, 2022 - 04:35 AM EDT / 2022.09.26 0835 UTC
Wind: Calm:0
Visibility: 10 mile(s):0
Sky conditions: overcast
Temperature: 66 F (19 C)
Dew Point: 66 F (19 C)
Relative Humidity: 100%
Pressure (altimeter): 29.92 in. Hg (1013 hPa)
ob: KSEM 260835Z AUTO 00000KT 10SM BKN040 OVC045 19/19 A2992 RMK AO2
cycle: 8

Station Type Date Time Source
KSEM TAF UTC NOAA

Error!

Example: see airport list